Alma Center, WI

9:11 AM CST on November 24, 2014 (GMT -0600)
Chippewa Valley Regional | Change Station
CLOSE
Current Station
Airport
Location: Eau Claire,
Elevation: 906 ft
Nearby Weather Stations
Active Advisory: Winter Weather Advisory Active Notice: Public Information Statement

Elev 906 ft 44.87 °N, 91.48 °W | Updated 8 minutes ago

Overcast
Overcast
31 °F
Feels Like 19 °F
N
18
Wind Variable Wind from WNW
Gusts 28 mph

Today
High -- | Low -- °F
--% Chance of Precip.
Yesterday
High -- | Low -- °F
Precip. -- in
7:11 AM 4:28 PM
Waxing Crescent, 5% visible
Pressure 29.25 in
Visibility 1.0 miles
Clouds Mostly Cloudy 1400 ft
Overcast 1800 ft
Windchill 19 °F
Dew Point 27 °F
Humidity 85%
Rainfall 0.07 in
Snow Depth Not available.
UV 0 out of 12
Pollen .10 out of 12
Air Quality Not available.
Flu Activity Not available.
SPECI KEAU 241503Z 30016G24KT 1SM -SN BR BKN014 OVC018 M01/M03 A2925 RMK AO2 P0000 T10061028

More Conditions Fewer Conditions

Pressure 29.25 in
Visibility 1.0 miles
Clouds Mostly Cloudy 1400 ft
Overcast 1800 ft
Windchill 19 °F
Dew Point 27 °F
Humidity 85%
Rainfall 0.07 in
Snow Depth Not available.
UV 0 out of 12
Pollen .10 out of 12
Air Quality Not available.
Flu Activity Not available.
SPECI KEAU 241503Z 30016G24KT 1SM -SN BR BKN014 OVC018 M01/M03 A2925 RMK AO2 P0000 T10061028

More Conditions Fewer Conditions

10-Day Weather Forecast

Almanac

Astronomy

Nov. 24, 2014 Rise Set
Actual Time
Civil Twilight
Nautical Twilight
Astronomical Twilight
Moon
Length of Visible Light
Length of Day
Tomorrow will be .
, % of the Moon is Illuminated

Today's Extremes

State Highs State Lows

Community

WunderPhotos

Upload Photos

1,773,360 photos uploaded!

WunderBlogs® & News

Nearby

Air Quality

  Air Quality AQ Index Pollutant
Not available.

Snow Depth

Station Depth Elevation

Earthquake Activity

City Distance Mag. Time & Date
Minimum magnitude displayed is 2.5.

Coastal Water Temperatures

Place Temperature

Nearby Weather Stations